createdAt,value
2023-12-16T07:15:17.720Z,6.36
2023-12-16T07:20:20.511Z,6.35
2023-12-16T07:25:23.136Z,6.39
2023-12-16T07:30:25.864Z,6.47
2023-12-16T07:35:28.543Z,6.53
2023-12-16T07:40:33.186Z,6.59
2023-12-16T07:45:37.415Z,6.62
2023-12-16T07:50:40.047Z,6.67
2023-12-16T07:55:42.670Z,6.74
2023-12-16T08:00:45.368Z,6.82
2023-12-16T08:05:48.045Z,6.86
2023-12-16T08:10:54.250Z,6.91
2023-12-16T08:15:56.979Z,6.97
2023-12-16T08:20:59.659Z,7.02
2023-12-16T08:26:02.439Z,7.02
2023-12-16T08:31:08.234Z,7.07
2023-12-16T08:36:10.973Z,7.05
2023-12-16T08:41:13.741Z,7.04
2023-12-16T08:46:16.689Z,7.10
2023-12-16T08:51:25.363Z,7.17
2023-12-16T08:56:27.968Z,7.24
2023-12-16T09:01:31.313Z,7.38
2023-12-16T09:06:38.550Z,7.52
2023-12-16T09:11:47.365Z,7.75
2023-12-16T09:16:49.934Z,7.91
2023-12-16T09:21:52.638Z,8.06
2023-12-16T09:26:55.282Z,8.22
2023-12-16T09:31:57.946Z,8.56
2023-12-16T09:37:00.599Z,8.79
2023-12-16T09:42:04.374Z,9.11
2023-12-16T09:47:10.108Z,9.36
2023-12-16T09:52:14.038Z,9.19
2023-12-16T09:57:19.750Z,9.12
2023-12-16T10:02:29.587Z,9.18
2023-12-16T10:07:32.447Z,9.23
2023-12-16T10:12:35.360Z,9.18
2023-12-16T10:17:38.733Z,9.31
2023-12-16T10:22:44.279Z,9.24
2023-12-16T10:27:48.852Z,9.26
2023-12-16T10:32:51.564Z,9.44
2023-12-16T10:37:56.135Z,9.72
2023-12-16T10:42:59.228Z,9.96
2023-12-16T10:48:05.251Z,10.13
2023-12-16T10:53:15.805Z,10.91
2023-12-16T10:58:29.826Z,11.76
2023-12-16T11:03:40.148Z,12.42
2023-12-16T11:08:42.775Z,12.20
2023-12-16T11:13:45.826Z,11.61
2023-12-16T11:18:50.643Z,12.12
2023-12-16T11:23:54.909Z,12.08
2023-12-16T11:28:57.625Z,12.11
2023-12-16T11:34:00.768Z,11.77
2023-12-16T11:39:04.486Z,12.11
2023-12-16T11:44:08.795Z,12.04
2023-12-16T11:49:14.565Z,11.94
2023-12-16T11:54:17.329Z,11.80
2023-12-16T11:59:20.033Z,11.11
2023-12-16T12:04:22.730Z,10.45
2023-12-16T12:09:25.471Z,10.26
2023-12-16T12:14:28.595Z,10.25
2023-12-16T12:19:31.308Z,10.25
2023-12-16T12:24:34.138Z,10.09
2023-12-16T12:29:56.381Z,10.08
2023-12-16T12:35:07.558Z,9.91
2023-12-16T12:40:14.496Z,9.81
2023-12-16T12:45:34.237Z,9.66
2023-12-16T12:50:37.950Z,9.53
2023-12-16T12:55:44.433Z,9.44
2023-12-16T13:00:47.547Z,9.33
2023-12-16T13:05:50.974Z,9.39
2023-12-16T13:10:53.973Z,9.28
2023-12-16T13:15:58.342Z,9.13
2023-12-16T13:21:01.808Z,8.97
2023-12-16T13:26:11.929Z,8.91
2023-12-16T13:31:14.721Z,8.82
2023-12-16T13:36:33.705Z,8.72
2023-12-16T13:41:40.618Z,8.66
2023-12-16T13:46:44.310Z,8.61
2023-12-16T13:51:46.887Z,8.58
2023-12-16T13:56:49.699Z,8.48
2023-12-16T14:01:52.477Z,8.35
2023-12-16T14:06:55.150Z,8.31
2023-12-16T14:11:57.776Z,8.25
2023-12-16T14:17:00.635Z,8.20
2023-12-16T14:22:03.385Z,8.19
2023-12-16T14:27:06.099Z,8.12
2023-12-16T14:32:08.839Z,8.05
2023-12-16T14:37:11.435Z,8.01
2023-12-16T14:42:14.297Z,7.95
2023-12-16T14:47:16.922Z,7.89
2023-12-16T14:52:19.533Z,7.96
2023-12-16T14:57:22.121Z,7.86
2023-12-16T15:02:25.505Z,7.81
2023-12-16T15:07:28.237Z,7.71
2023-12-16T15:12:30.966Z,7.68
2023-12-16T15:17:34.990Z,7.61
2023-12-16T15:22:38.550Z,7.54
2023-12-16T15:27:42.133Z,7.49
2023-12-16T15:32:45.033Z,7.47
2023-12-16T15:37:47.681Z,7.45
2023-12-16T15:42:50.275Z,7.46
2023-12-16T15:47:53.009Z,7.46
2023-12-16T15:52:55.713Z,7.46
2023-12-16T15:57:58.476Z,7.46
2023-12-16T16:03:02.205Z,7.46
2023-12-16T16:08:05.789Z,7.45
2023-12-16T16:13:13.471Z,7.46
2023-12-16T16:18:17.413Z,7.48
2023-12-16T16:23:20.091Z,7.64
2023-12-16T16:28:22.863Z,7.60
2023-12-16T16:33:25.701Z,7.53
2023-12-16T16:38:29.907Z,7.49
2023-12-16T16:43:32.569Z,7.47
2023-12-16T16:48:35.326Z,7.45
2023-12-16T16:53:38.137Z,7.43
2023-12-16T16:58:43.432Z,7.42
2023-12-16T17:03:46.133Z,7.41
2023-12-16T17:08:48.795Z,7.43
2023-12-16T17:13:51.430Z,7.43
2023-12-16T17:18:54.203Z,7.45
2023-12-16T17:23:57.845Z,7.45
2023-12-16T17:29:00.566Z,7.45
2023-12-16T17:34:03.327Z,7.47
2023-12-16T17:39:06.970Z,7.50
2023-12-16T17:44:09.935Z,7.53
2023-12-16T17:49:12.785Z,7.54
2023-12-16T17:54:15.444Z,7.56
2023-12-16T17:59:18.129Z,7.65
2023-12-16T18:04:21.039Z,7.73
2023-12-16T18:09:23.774Z,7.71
2023-12-16T18:14:26.815Z,7.72
2023-12-16T18:19:30.919Z,7.72
2023-12-16T18:24:33.647Z,7.74
2023-12-16T18:29:39.349Z,7.76
2023-12-16T18:34:42.575Z,7.77
2023-12-16T18:39:45.700Z,7.77
2023-12-16T18:44:48.600Z,7.78
2023-12-16T18:49:51.360Z,7.81
2023-12-16T18:54:54.033Z,7.82
2023-12-16T18:59:56.641Z,7.84
2023-12-16T19:04:59.458Z,7.86
2023-12-16T19:10:05.954Z,7.89
2023-12-16T19:15:08.911Z,7.92
2023-12-16T19:20:12.023Z,7.94
2023-12-16T19:25:14.963Z,7.97
2023-12-16T19:30:17.817Z,8.00
2023-12-16T19:35:20.653Z,8.02
2023-12-16T19:40:23.341Z,8.05
2023-12-16T19:45:26.123Z,8.06
2023-12-16T19:50:28.848Z,8.10
2023-12-16T19:55:31.578Z,8.13
2023-12-16T20:00:35.516Z,8.16
2023-12-16T20:05:38.287Z,8.19
2023-12-16T20:10:43.310Z,8.22
2023-12-16T20:15:46.025Z,8.23
2023-12-16T20:20:48.732Z,8.25
2023-12-16T20:25:52.493Z,8.27
2023-12-16T20:30:55.356Z,8.29
2023-12-16T20:35:57.978Z,8.32
2023-12-16T20:41:00.621Z,8.34
2023-12-16T20:46:04.073Z,8.37
2023-12-16T20:51:06.976Z,8.39
2023-12-16T20:56:10.438Z,8.40
2023-12-16T21:01:13.129Z,8.50
2023-12-16T21:06:16.097Z,8.46
2023-12-16T21:11:18.818Z,8.48
2023-12-16T21:16:22.850Z,8.48
2023-12-16T21:21:25.515Z,8.45
2023-12-16T21:26:28.376Z,8.44
2023-12-16T21:31:31.062Z,8.43
2023-12-16T21:36:33.738Z,8.44
2023-12-16T21:41:36.424Z,8.42
2023-12-16T21:46:39.096Z,8.43
2023-12-16T21:51:42.019Z,8.44
2023-12-16T21:56:44.891Z,8.44
2023-12-16T22:01:47.623Z,8.46
2023-12-16T22:06:50.263Z,8.46
2023-12-16T22:11:52.923Z,8.47
2023-12-16T22:16:55.633Z,8.47
2023-12-16T22:21:59.494Z,8.48
2023-12-16T22:27:02.191Z,8.47
2023-12-16T22:32:05.252Z,8.48
2023-12-16T22:37:07.914Z,8.48
2023-12-16T22:42:10.824Z,8.49
2023-12-16T22:47:13.543Z,8.49
2023-12-16T22:52:16.156Z,8.52
